sensor_id;sensor_type;location;lat;lon;timestamp;P1;durP1;ratioP1;P2;durP2;ratioP2
77520;SDS011;66633;47.628;19.158;2023-05-19T00:00:41;6.18;;;2.95;;
77520;SDS011;66633;47.628;19.158;2023-05-19T00:03:08;7.25;;;3.08;;
77520;SDS011;66633;47.628;19.158;2023-05-19T00:05:35;7.50;;;3.97;;
77520;SDS011;66633;47.628;19.158;2023-05-19T00:08:04;8.63;;;4.65;;
77520;SDS011;66633;47.628;19.158;2023-05-19T00:10:30;7.53;;;3.85;;
77520;SDS011;66633;47.628;19.158;2023-05-19T00:12:57;7.43;;;3.05;;
77520;SDS011;66633;47.628;19.158;2023-05-19T00:15:22;6.57;;;3.10;;
77520;SDS011;66633;47.628;19.158;2023-05-19T00:17:48;6.88;;;3.15;;
77520;SDS011;66633;47.628;19.158;2023-05-19T00:20:13;6.90;;;3.10;;
77520;SDS011;66633;47.628;19.158;2023-05-19T00:22:39;6.25;;;2.75;;
77520;SDS011;66633;47.628;19.158;2023-05-19T00:25:08;6.28;;;2.95;;
77520;SDS011;66633;47.628;19.158;2023-05-19T00:27:33;5.78;;;2.85;;
77520;SDS011;66633;47.628;19.158;2023-05-19T00:29:58;5.85;;;2.97;;
77520;SDS011;66633;47.628;19.158;2023-05-19T00:32:23;9.43;;;4.03;;
77520;SDS011;66633;47.628;19.158;2023-05-19T00:34:49;6.77;;;3.50;;
77520;SDS011;66633;47.628;19.158;2023-05-19T00:37:14;7.28;;;4.05;;
77520;SDS011;66633;47.628;19.158;2023-05-19T00:39:39;8.63;;;4.80;;
77520;SDS011;66633;47.628;19.158;2023-05-19T00:42:05;8.57;;;3.70;;
77520;SDS011;66633;47.628;19.158;2023-05-19T00:44:30;7.93;;;3.80;;
77520;SDS011;66633;47.628;19.158;2023-05-19T00:46:56;6.13;;;2.97;;
77520;SDS011;66633;47.628;19.158;2023-05-19T00:49:21;5.88;;;3.08;;
77520;SDS011;66633;47.628;19.158;2023-05-19T00:51:46;6.20;;;2.92;;
77520;SDS011;66633;47.628;19.158;2023-05-19T00:54:12;5.85;;;2.90;;
77520;SDS011;66633;47.628;19.158;2023-05-19T00:56:37;6.23;;;3.23;;
77520;SDS011;66633;47.628;19.158;2023-05-19T00:59:03;6.22;;;2.97;;
77520;SDS011;66633;47.628;19.158;2023-05-19T01:01:28;6.72;;;3.30;;
77520;SDS011;66633;47.628;19.158;2023-05-19T01:03:56;6.75;;;3.22;;
77520;SDS011;66633;47.628;19.158;2023-05-19T01:06:23;7.40;;;3.78;;
77520;SDS011;66633;47.628;19.158;2023-05-19T01:08:49;7.50;;;3.90;;
77520;SDS011;66633;47.628;19.158;2023-05-19T01:11:15;8.55;;;4.10;;
77520;SDS011;66633;47.628;19.158;2023-05-19T01:13:40;8.45;;;4.20;;
77520;SDS011;66633;47.628;19.158;2023-05-19T01:16:13;7.05;;;4.13;;
77520;SDS011;66633;47.628;19.158;2023-05-19T01:29:26;10.18;;;4.68;;
77520;SDS011;66633;47.628;19.158;2023-05-19T01:34:18;10.15;;;4.20;;
77520;SDS011;66633;47.628;19.158;2023-05-19T01:36:44;8.07;;;3.88;;
77520;SDS011;66633;47.628;19.158;2023-05-19T01:39:12;8.20;;;4.22;;
77520;SDS011;66633;47.628;19.158;2023-05-19T01:41:38;8.90;;;4.60;;
77520;SDS011;66633;47.628;19.158;2023-05-19T01:44:05;9.50;;;4.63;;
77520;SDS011;66633;47.628;19.158;2023-05-19T01:46:31;9.45;;;4.30;;
77520;SDS011;66633;47.628;19.158;2023-05-19T01:48:56;12.45;;;5.80;;
77520;SDS011;66633;47.628;19.158;2023-05-19T01:51:22;10.75;;;4.80;;
77520;SDS011;66633;47.628;19.158;2023-05-19T01:53:47;9.17;;;4.23;;
77520;SDS011;66633;47.628;19.158;2023-05-19T01:56:13;12.63;;;6.63;;
77520;SDS011;66633;47.628;19.158;2023-05-19T01:58:47;14.90;;;8.13;;
77520;SDS011;66633;47.628;19.158;2023-05-19T02:09:10;16.65;;;8.25;;
77520;SDS011;66633;47.628;19.158;2023-05-19T02:14:09;12.73;;;6.38;;
77520;SDS011;66633;47.628;19.158;2023-05-19T02:16:36;13.10;;;6.05;;
77520;SDS011;66633;47.628;19.158;2023-05-19T02:19:03;10.98;;;5.78;;
77520;SDS011;66633;47.628;19.158;2023-05-19T02:21:28;10.25;;;4.65;;
77520;SDS011;66633;47.628;19.158;2023-05-19T02:23:53;9.15;;;4.90;;
77520;SDS011;66633;47.628;19.158;2023-05-19T02:26:18;9.23;;;3.67;;
77520;SDS011;66633;47.628;19.158;2023-05-19T02:28:44;8.80;;;4.10;;
77520;SDS011;66633;47.628;19.158;2023-05-19T02:31:09;8.43;;;4.07;;
77520;SDS011;66633;47.628;19.158;2023-05-19T02:33:34;8.70;;;4.17;;
77520;SDS011;66633;47.628;19.158;2023-05-19T02:36:00;6.97;;;3.42;;
77520;SDS011;66633;47.628;19.158;2023-05-19T02:38:25;6.97;;;3.60;;
77520;SDS011;66633;47.628;19.158;2023-05-19T02:40:51;9.85;;;4.30;;
77520;SDS011;66633;47.628;19.158;2023-05-19T02:43:17;12.32;;;4.97;;
77520;SDS011;66633;47.628;19.158;2023-05-19T02:45:42;9.00;;;4.22;;
77520;SDS011;66633;47.628;19.158;2023-05-19T02:48:07;9.17;;;4.47;;
77520;SDS011;66633;47.628;19.158;2023-05-19T02:50:33;7.72;;;3.85;;
77520;SDS011;66633;47.628;19.158;2023-05-19T02:52:58;9.87;;;4.83;;
77520;SDS011;66633;47.628;19.158;2023-05-19T02:55:23;9.37;;;4.77;;
77520;SDS011;66633;47.628;19.158;2023-05-19T02:57:48;8.03;;;4.20;;
77520;SDS011;66633;47.628;19.158;2023-05-19T03:00:14;9.02;;;4.47;;
77520;SDS011;66633;47.628;19.158;2023-05-19T03:02:39;7.97;;;4.30;;
77520;SDS011;66633;47.628;19.158;2023-05-19T03:05:05;10.75;;;5.78;;
77520;SDS011;66633;47.628;19.158;2023-05-19T03:07:31;13.98;;;6.95;;
77520;SDS011;66633;47.628;19.158;2023-05-19T03:09:57;12.63;;;7.20;;
77520;SDS011;66633;47.628;19.158;2023-05-19T03:12:22;13.35;;;6.88;;
77520;SDS011;66633;47.628;19.158;2023-05-19T03:14:48;11.10;;;6.15;;
77520;SDS011;66633;47.628;19.158;2023-05-19T03:17:13;13.00;;;6.03;;
77520;SDS011;66633;47.628;19.158;2023-05-19T03:19:39;12.52;;;6.57;;
77520;SDS011;66633;47.628;19.158;2023-05-19T03:22:05;10.68;;;6.38;;
77520;SDS011;66633;47.628;19.158;2023-05-19T03:24:30;10.15;;;5.85;;
77520;SDS011;66633;47.628;19.158;2023-05-19T03:26:56;9.85;;;5.85;;
77520;SDS011;66633;47.628;19.158;2023-05-19T03:29:21;11.00;;;6.10;;
77520;SDS011;66633;47.628;19.158;2023-05-19T03:31:47;10.25;;;6.75;;
77520;SDS011;66633;47.628;19.158;2023-05-19T03:34:12;12.43;;;6.30;;
77520;SDS011;66633;47.628;19.158;2023-05-19T03:36:38;10.45;;;5.57;;
77520;SDS011;66633;47.628;19.158;2023-05-19T03:39:04;10.50;;;6.93;;
77520;SDS011;66633;47.628;19.158;2023-05-19T03:41:29;11.48;;;6.68;;
77520;SDS011;66633;47.628;19.158;2023-05-19T03:43:55;12.60;;;7.63;;
77520;SDS011;66633;47.628;19.158;2023-05-19T03:46:20;9.17;;;6.17;;
77520;SDS011;66633;47.628;19.158;2023-05-19T03:48:45;12.60;;;7.40;;
77520;SDS011;66633;47.628;19.158;2023-05-19T03:51:10;11.50;;;6.77;;
77520;SDS011;66633;47.628;19.158;2023-05-19T03:53:36;12.63;;;7.50;;
77520;SDS011;66633;47.628;19.158;2023-05-19T03:56:01;11.15;;;6.85;;
77520;SDS011;66633;47.628;19.158;2023-05-19T03:58:27;13.37;;;8.93;;
77520;SDS011;66633;47.628;19.158;2023-05-19T04:00:54;11.95;;;6.65;;
77520;SDS011;66633;47.628;19.158;2023-05-19T04:03:19;12.70;;;6.85;;
77520;SDS011;66633;47.628;19.158;2023-05-19T04:05:44;11.30;;;6.93;;
77520;SDS011;66633;47.628;19.158;2023-05-19T04:08:10;11.57;;;6.63;;
77520;SDS011;66633;47.628;19.158;2023-05-19T04:10:35;11.00;;;6.13;;
77520;SDS011;66633;47.628;19.158;2023-05-19T04:13:02;10.20;;;6.43;;
77520;SDS011;66633;47.628;19.158;2023-05-19T04:15:27;9.45;;;5.43;;
77520;SDS011;66633;47.628;19.158;2023-05-19T04:17:53;8.82;;;5.43;;
77520;SDS011;66633;47.628;19.158;2023-05-19T04:20:18;10.40;;;5.10;;
77520;SDS011;66633;47.628;19.158;2023-05-19T04:22:43;8.57;;;4.97;;
77520;SDS011;66633;47.628;19.158;2023-05-19T04:25:09;10.45;;;5.00;;
77520;SDS011;66633;47.628;19.158;2023-05-19T04:27:34;7.37;;;4.60;;
77520;SDS011;66633;47.628;19.158;2023-05-19T04:30:08;12.07;;;4.43;;
77520;SDS011;66633;47.628;19.158;2023-05-19T04:32:34;9.30;;;4.72;;
77520;SDS011;66633;47.628;19.158;2023-05-19T04:35:01;7.30;;;4.32;;
77520;SDS011;66633;47.628;19.158;2023-05-19T04:37:27;8.32;;;4.45;;
77520;SDS011;66633;47.628;19.158;2023-05-19T04:39:53;7.68;;;4.30;;
77520;SDS011;66633;47.628;19.158;2023-05-19T04:42:19;8.43;;;4.65;;
77520;SDS011;66633;47.628;19.158;2023-05-19T04:44:44;8.52;;;4.38;;
77520;SDS011;66633;47.628;19.158;2023-05-19T04:47:10;7.85;;;3.90;;
77520;SDS011;66633;47.628;19.158;2023-05-19T04:49:35;8.48;;;4.25;;
77520;SDS011;66633;47.628;19.158;2023-05-19T04:52:04;7.32;;;4.38;;
77520;SDS011;66633;47.628;19.158;2023-05-19T04:54:30;7.45;;;4.07;;
77520;SDS011;66633;47.628;19.158;2023-05-19T04:56:55;6.72;;;3.88;;
77520;SDS011;66633;47.628;19.158;2023-05-19T04:59:22;12.27;;;4.57;;
77520;SDS011;66633;47.628;19.158;2023-05-19T05:01:47;8.33;;;4.17;;
77520;SDS011;66633;47.628;19.158;2023-05-19T05:04:13;7.55;;;4.10;;
77520;SDS011;66633;47.628;19.158;2023-05-19T05:06:38;6.85;;;3.70;;
77520;SDS011;66633;47.628;19.158;2023-05-19T05:09:04;9.02;;;3.70;;
77520;SDS011;66633;47.628;19.158;2023-05-19T05:11:29;7.97;;;4.05;;
77520;SDS011;66633;47.628;19.158;2023-05-19T05:13:55;6.82;;;3.53;;
77520;SDS011;66633;47.628;19.158;2023-05-19T05:16:22;8.20;;;4.30;;
77520;SDS011;66633;47.628;19.158;2023-05-19T05:18:47;7.55;;;3.80;;
77520;SDS011;66633;47.628;19.158;2023-05-19T05:21:13;6.95;;;3.67;;
77520;SDS011;66633;47.628;19.158;2023-05-19T05:23:38;8.45;;;3.53;;
77520;SDS011;66633;47.628;19.158;2023-05-19T05:26:05;8.60;;;3.85;;
77520;SDS011;66633;47.628;19.158;2023-05-19T05:28:32;8.45;;;4.10;;
77520;SDS011;66633;47.628;19.158;2023-05-19T05:30:57;7.47;;;4.00;;
77520;SDS011;66633;47.628;19.158;2023-05-19T05:33:22;6.97;;;3.90;;
77520;SDS011;66633;47.628;19.158;2023-05-19T05:35:48;6.65;;;3.80;;
77520;SDS011;66633;47.628;19.158;2023-05-19T05:38:14;7.93;;;4.00;;
77520;SDS011;66633;47.628;19.158;2023-05-19T05:40:39;9.43;;;5.75;;
77520;SDS011;66633;47.628;19.158;2023-05-19T05:43:05;7.70;;;5.03;;
77520;SDS011;66633;47.628;19.158;2023-05-19T05:45:30;8.17;;;5.43;;
77520;SDS011;66633;47.628;19.158;2023-05-19T05:47:55;8.67;;;5.30;;
77520;SDS011;66633;47.628;19.158;2023-05-19T05:50:21;8.80;;;5.03;;
77520;SDS011;66633;47.628;19.158;2023-05-19T05:52:46;8.32;;;5.70;;
77520;SDS011;66633;47.628;19.158;2023-05-19T05:55:12;8.10;;;4.60;;
77520;SDS011;66633;47.628;19.158;2023-05-19T05:57:38;8.75;;;5.55;;
77520;SDS011;66633;47.628;19.158;2023-05-19T06:00:06;9.30;;;5.15;;
77520;SDS011;66633;47.628;19.158;2023-05-19T06:02:34;8.70;;;5.43;;
77520;SDS011;66633;47.628;19.158;2023-05-19T06:05:00;9.27;;;5.10;;
77520;SDS011;66633;47.628;19.158;2023-05-19T06:07:26;8.35;;;5.03;;
77520;SDS011;66633;47.628;19.158;2023-05-19T06:09:51;11.83;;;5.53;;
77520;SDS011;66633;47.628;19.158;2023-05-19T06:12:16;11.30;;;5.82;;
77520;SDS011;66633;47.628;19.158;2023-05-19T06:14:42;9.15;;;5.40;;
77520;SDS011;66633;47.628;19.158;2023-05-19T06:17:07;11.13;;;6.32;;
77520;SDS011;66633;47.628;19.158;2023-05-19T06:19:32;8.57;;;5.33;;
77520;SDS011;66633;47.628;19.158;2023-05-19T06:21:58;9.55;;;6.18;;
77520;SDS011;66633;47.628;19.158;2023-05-19T06:24:23;9.30;;;5.50;;
77520;SDS011;66633;47.628;19.158;2023-05-19T06:26:48;9.52;;;6.13;;
77520;SDS011;66633;47.628;19.158;2023-05-19T06:29:13;10.77;;;6.37;;
77520;SDS011;66633;47.628;19.158;2023-05-19T06:31:39;9.88;;;6.03;;
77520;SDS011;66633;47.628;19.158;2023-05-19T06:34:04;8.68;;;6.07;;
77520;SDS011;66633;47.628;19.158;2023-05-19T06:36:29;10.60;;;6.53;;
77520;SDS011;66633;47.628;19.158;2023-05-19T06:38:55;9.75;;;6.13;;
77520;SDS011;66633;47.628;19.158;2023-05-19T06:41:20;10.20;;;6.57;;
77520;SDS011;66633;47.628;19.158;2023-05-19T06:43:46;9.50;;;6.07;;
77520;SDS011;66633;47.628;19.158;2023-05-19T06:46:11;10.13;;;6.60;;
77520;SDS011;66633;47.628;19.158;2023-05-19T06:48:37;9.05;;;6.57;;
77520;SDS011;66633;47.628;19.158;2023-05-19T06:51:02;8.73;;;5.72;;
77520;SDS011;66633;47.628;19.158;2023-05-19T06:53:27;9.98;;;5.95;;
77520;SDS011;66633;47.628;19.158;2023-05-19T06:55:52;10.03;;;6.17;;
77520;SDS011;66633;47.628;19.158;2023-05-19T06:58:18;10.13;;;6.28;;
77520;SDS011;66633;47.628;19.158;2023-05-19T07:00:43;11.47;;;7.00;;
77520;SDS011;66633;47.628;19.158;2023-05-19T07:03:08;9.27;;;6.00;;
77520;SDS011;66633;47.628;19.158;2023-05-19T07:05:34;8.93;;;6.10;;
77520;SDS011;66633;47.628;19.158;2023-05-19T07:07:59;9.27;;;5.55;;
77520;SDS011;66633;47.628;19.158;2023-05-19T07:10:25;9.57;;;5.88;;
77520;SDS011;66633;47.628;19.158;2023-05-19T07:12:50;9.50;;;6.43;;
77520;SDS011;66633;47.628;19.158;2023-05-19T07:15:16;11.73;;;6.93;;
77520;SDS011;66633;47.628;19.158;2023-05-19T07:17:41;9.20;;;5.63;;
77520;SDS011;66633;47.628;19.158;2023-05-19T07:20:06;12.07;;;7.27;;
77520;SDS011;66633;47.628;19.158;2023-05-19T07:22:34;8.43;;;5.78;;
77520;SDS011;66633;47.628;19.158;2023-05-19T07:24:59;11.35;;;6.82;;
77520;SDS011;66633;47.628;19.158;2023-05-19T07:27:25;10.70;;;7.30;;
77520;SDS011;66633;47.628;19.158;2023-05-19T07:29:50;12.73;;;7.13;;
77520;SDS011;66633;47.628;19.158;2023-05-19T07:32:15;9.05;;;5.72;;
77520;SDS011;66633;47.628;19.158;2023-05-19T07:34:40;8.67;;;6.00;;
77520;SDS011;66633;47.628;19.158;2023-05-19T07:37:06;10.63;;;7.10;;
77520;SDS011;66633;47.628;19.158;2023-05-19T07:39:32;9.43;;;6.35;;
77520;SDS011;66633;47.628;19.158;2023-05-19T07:41:57;13.23;;;6.30;;
77520;SDS011;66633;47.628;19.158;2023-05-19T07:44:23;9.18;;;6.43;;
77520;SDS011;66633;47.628;19.158;2023-05-19T07:46:48;11.07;;;6.87;;
77520;SDS011;66633;47.628;19.158;2023-05-19T07:49:13;10.90;;;7.07;;
77520;SDS011;66633;47.628;19.158;2023-05-19T07:51:38;9.63;;;6.83;;
77520;SDS011;66633;47.628;19.158;2023-05-19T07:54:05;10.85;;;6.93;;
77520;SDS011;66633;47.628;19.158;2023-05-19T07:56:32;9.38;;;6.65;;
77520;SDS011;66633;47.628;19.158;2023-05-19T07:58:57;9.90;;;6.88;;
77520;SDS011;66633;47.628;19.158;2023-05-19T08:01:22;9.40;;;6.57;;
77520;SDS011;66633;47.628;19.158;2023-05-19T08:03:48;9.00;;;6.18;;
77520;SDS011;66633;47.628;19.158;2023-05-19T08:06:13;9.30;;;5.90;;
77520;SDS011;66633;47.628;19.158;2023-05-19T08:08:38;6.90;;;4.73;;
77520;SDS011;66633;47.628;19.158;2023-05-19T08:11:04;7.30;;;4.80;;
77520;SDS011;66633;47.628;19.158;2023-05-19T08:13:30;9.70;;;5.80;;
77520;SDS011;66633;47.628;19.158;2023-05-19T08:15:55;7.13;;;4.45;;
77520;SDS011;66633;47.628;19.158;2023-05-19T08:18:24;8.82;;;5.25;;
77520;SDS011;66633;47.628;19.158;2023-05-19T08:20:49;7.15;;;5.05;;
77520;SDS011;66633;47.628;19.158;2023-05-19T08:23:14;7.00;;;4.80;;
77520;SDS011;66633;47.628;19.158;2023-05-19T08:25:40;9.60;;;5.00;;
77520;SDS011;66633;47.628;19.158;2023-05-19T08:28:05;10.30;;;4.97;;
77520;SDS011;66633;47.628;19.158;2023-05-19T08:30:31;8.00;;;4.33;;
77520;SDS011;66633;47.628;19.158;2023-05-19T08:32:56;6.10;;;3.97;;
77520;SDS011;66633;47.628;19.158;2023-05-19T08:35:21;7.80;;;4.10;;
77520;SDS011;66633;47.628;19.158;2023-05-19T08:37:46;7.63;;;4.40;;
77520;SDS011;66633;47.628;19.158;2023-05-19T08:40:14;5.80;;;3.40;;
77520;SDS011;66633;47.628;19.158;2023-05-19T08:42:40;5.75;;;3.70;;
77520;SDS011;66633;47.628;19.158;2023-05-19T08:45:05;7.35;;;3.53;;
77520;SDS011;66633;47.628;19.158;2023-05-19T08:47:31;7.20;;;3.88;;
77520;SDS011;66633;47.628;19.158;2023-05-19T08:50:00;6.53;;;4.07;;
77520;SDS011;66633;47.628;19.158;2023-05-19T08:54:53;7.87;;;3.80;;
77520;SDS011;66633;47.628;19.158;2023-05-19T08:57:21;7.90;;;3.90;;
77520;SDS011;66633;47.628;19.158;2023-05-19T08:59:47;7.43;;;3.80;;
77520;SDS011;66633;47.628;19.158;2023-05-19T09:02:13;7.05;;;3.90;;
77520;SDS011;66633;47.628;19.158;2023-05-19T09:04:38;7.32;;;4.03;;
77520;SDS011;66633;47.628;19.158;2023-05-19T09:07:04;9.52;;;4.00;;
77520;SDS011;66633;47.628;19.158;2023-05-19T09:09:29;7.78;;;4.05;;
77520;SDS011;66633;47.628;19.158;2023-05-19T09:11:55;5.67;;;3.53;;
77520;SDS011;66633;47.628;19.158;2023-05-19T09:14:20;7.30;;;3.70;;
77520;SDS011;66633;47.628;19.158;2023-05-19T09:16:45;6.97;;;4.03;;
77520;SDS011;66633;47.628;19.158;2023-05-19T09:19:15;5.63;;;3.30;;
77520;SDS011;66633;47.628;19.158;2023-05-19T09:21:40;8.98;;;4.10;;
77520;SDS011;66633;47.628;19.158;2023-05-19T09:24:06;5.47;;;3.58;;
77520;SDS011;66633;47.628;19.158;2023-05-19T09:26:35;7.72;;;3.30;;
77520;SDS011;66633;47.628;19.158;2023-05-19T09:29:01;5.80;;;3.30;;
77520;SDS011;66633;47.628;19.158;2023-05-19T09:31:30;8.48;;;4.05;;
77520;SDS011;66633;47.628;19.158;2023-05-19T09:33:56;7.03;;;3.50;;
77520;SDS011;66633;47.628;19.158;2023-05-19T09:36:21;7.07;;;4.10;;
77520;SDS011;66633;47.628;19.158;2023-05-19T09:38:46;6.13;;;3.90;;
77520;SDS011;66633;47.628;19.158;2023-05-19T09:41:13;8.53;;;4.30;;
77520;SDS011;66633;47.628;19.158;2023-05-19T09:43:38;5.97;;;3.97;;
77520;SDS011;66633;47.628;19.158;2023-05-19T09:46:07;6.80;;;4.10;;
77520;SDS011;66633;47.628;19.158;2023-05-19T09:48:33;6.60;;;3.78;;
77520;SDS011;66633;47.628;19.158;2023-05-19T09:50:59;6.25;;;3.70;;
77520;SDS011;66633;47.628;19.158;2023-05-19T09:53:25;6.70;;;3.75;;
77520;SDS011;66633;47.628;19.158;2023-05-19T09:55:53;6.57;;;3.58;;
77520;SDS011;66633;47.628;19.158;2023-05-19T10:00:45;5.63;;;3.40;;
77520;SDS011;66633;47.628;19.158;2023-05-19T10:03:11;6.20;;;3.63;;
77520;SDS011;66633;47.628;19.158;2023-05-19T10:05:37;7.43;;;3.80;;
77520;SDS011;66633;47.628;19.158;2023-05-19T10:08:03;7.57;;;4.40;;
77520;SDS011;66633;47.628;19.158;2023-05-19T10:10:31;5.97;;;3.53;;
77520;SDS011;66633;47.628;19.158;2023-05-19T10:12:57;8.00;;;3.72;;
77520;SDS011;66633;47.628;19.158;2023-05-19T10:15:22;8.30;;;3.88;;
77520;SDS011;66633;47.628;19.158;2023-05-19T10:17:48;6.65;;;3.90;;
77520;SDS011;66633;47.628;19.158;2023-05-19T10:20:14;6.25;;;3.50;;
77520;SDS011;66633;47.628;19.158;2023-05-19T10:22:40;5.95;;;3.45;;
77520;SDS011;66633;47.628;19.158;2023-05-19T10:25:06;6.20;;;3.63;;
77520;SDS011;66633;47.628;19.158;2023-05-19T10:27:33;5.70;;;3.60;;
77520;SDS011;66633;47.628;19.158;2023-05-19T10:30:00;6.60;;;3.90;;
77520;SDS011;66633;47.628;19.158;2023-05-19T10:32:28;7.45;;;4.43;;
77520;SDS011;66633;47.628;19.158;2023-05-19T10:37:45;7.75;;;4.13;;
77520;SDS011;66633;47.628;19.158;2023-05-19T10:40:20;6.82;;;3.92;;
77520;SDS011;66633;47.628;19.158;2023-05-19T10:43:00;6.05;;;3.90;;
77520;SDS011;66633;47.628;19.158;2023-05-19T10:45:26;8.00;;;3.85;;
77520;SDS011;66633;47.628;19.158;2023-05-19T10:47:53;7.03;;;3.70;;
77520;SDS011;66633;47.628;19.158;2023-05-19T10:50:19;6.18;;;3.38;;
77520;SDS011;66633;47.628;19.158;2023-05-19T10:52:44;5.32;;;3.45;;
77520;SDS011;66633;47.628;19.158;2023-05-19T10:55:16;6.00;;;3.60;;
77520;SDS011;66633;47.628;19.158;2023-05-19T10:58:01;6.68;;;3.55;;
77520;SDS011;66633;47.628;19.158;2023-05-19T11:00:27;9.43;;;3.88;;
77520;SDS011;66633;47.628;19.158;2023-05-19T11:02:53;7.38;;;3.53;;
77520;SDS011;66633;47.628;19.158;2023-05-19T11:05:35;6.90;;;3.58;;
77520;SDS011;66633;47.628;19.158;2023-05-19T11:08:00;7.57;;;3.80;;
77520;SDS011;66633;47.628;19.158;2023-05-19T11:10:29;6.30;;;3.72;;
77520;SDS011;66633;47.628;19.158;2023-05-19T11:12:55;9.02;;;3.58;;
77520;SDS011;66633;47.628;19.158;2023-05-19T11:15:21;6.20;;;3.75;;
77520;SDS011;66633;47.628;19.158;2023-05-19T11:17:48;6.45;;;3.78;;
77520;SDS011;66633;47.628;19.158;2023-05-19T11:20:20;5.43;;;3.30;;
77520;SDS011;66633;47.628;19.158;2023-05-19T11:22:59;5.80;;;3.42;;
77520;SDS011;66633;47.628;19.158;2023-05-19T11:25:39;7.03;;;3.58;;
77520;SDS011;66633;47.628;19.158;2023-05-19T11:28:05;6.25;;;3.67;;
77520;SDS011;66633;47.628;19.158;2023-05-19T11:30:30;6.28;;;3.63;;
77520;SDS011;66633;47.628;19.158;2023-05-19T11:32:56;5.63;;;3.17;;
77520;SDS011;66633;47.628;19.158;2023-05-19T11:35:22;6.03;;;3.13;;
77520;SDS011;66633;47.628;19.158;2023-05-19T11:37:47;6.85;;;3.58;;
77520;SDS011;66633;47.628;19.158;2023-05-19T11:40:13;6.55;;;3.42;;
77520;SDS011;66633;47.628;19.158;2023-05-19T11:42:39;5.45;;;3.15;;
77520;SDS011;66633;47.628;19.158;2023-05-19T11:45:05;6.10;;;3.30;;
77520;SDS011;66633;47.628;19.158;2023-05-19T11:47:30;6.32;;;3.05;;
77520;SDS011;66633;47.628;19.158;2023-05-19T11:49:57;6.43;;;3.30;;
77520;SDS011;66633;47.628;19.158;2023-05-19T11:52:23;5.40;;;3.35;;
77520;SDS011;66633;47.628;19.158;2023-05-19T11:54:48;6.05;;;3.00;;
77520;SDS011;66633;47.628;19.158;2023-05-19T11:57:14;7.50;;;3.90;;
77520;SDS011;66633;47.628;19.158;2023-05-19T11:59:40;5.85;;;3.17;;
77520;SDS011;66633;47.628;19.158;2023-05-19T12:04:40;6.07;;;2.83;;
77520;SDS011;66633;47.628;19.158;2023-05-19T12:07:06;6.40;;;3.22;;
77520;SDS011;66633;47.628;19.158;2023-05-19T12:09:32;6.22;;;3.15;;
77520;SDS011;66633;47.628;19.158;2023-05-19T12:11:57;5.95;;;3.22;;
77520;SDS011;66633;47.628;19.158;2023-05-19T12:14:24;7.40;;;3.10;;
77520;SDS011;66633;47.628;19.158;2023-05-19T12:16:50;4.80;;;2.65;;
77520;SDS011;66633;47.628;19.158;2023-05-19T12:19:15;6.63;;;2.83;;
77520;SDS011;66633;47.628;19.158;2023-05-19T12:21:40;5.90;;;3.20;;
77520;SDS011;66633;47.628;19.158;2023-05-19T12:24:06;6.38;;;3.38;;
77520;SDS011;66633;47.628;19.158;2023-05-19T12:26:32;5.22;;;3.05;;
77520;SDS011;66633;47.628;19.158;2023-05-19T12:28:57;5.85;;;3.65;;
77520;SDS011;66633;47.628;19.158;2023-05-19T12:31:22;6.32;;;2.97;;
77520;SDS011;66633;47.628;19.158;2023-05-19T12:33:48;6.15;;;2.88;;
77520;SDS011;66633;47.628;19.158;2023-05-19T12:36:16;5.70;;;2.85;;
77520;SDS011;66633;47.628;19.158;2023-05-19T12:38:42;5.15;;;2.70;;
77520;SDS011;66633;47.628;19.158;2023-05-19T12:41:09;8.85;;;3.40;;
77520;SDS011;66633;47.628;19.158;2023-05-19T12:43:35;5.07;;;2.72;;
77520;SDS011;66633;47.628;19.158;2023-05-19T12:46:10;5.53;;;2.75;;
77520;SDS011;66633;47.628;19.158;2023-05-19T12:48:40;5.20;;;2.92;;
77520;SDS011;66633;47.628;19.158;2023-05-19T12:51:05;5.53;;;2.92;;
77520;SDS011;66633;47.628;19.158;2023-05-19T12:53:31;5.72;;;3.33;;
77520;SDS011;66633;47.628;19.158;2023-05-19T12:55:56;5.95;;;3.08;;
77520;SDS011;66633;47.628;19.158;2023-05-19T12:58:22;5.00;;;3.00;;
77520;SDS011;66633;47.628;19.158;2023-05-19T13:00:47;5.70;;;3.50;;
77520;SDS011;66633;47.628;19.158;2023-05-19T13:03:19;6.63;;;3.33;;
77520;SDS011;66633;47.628;19.158;2023-05-19T13:05:47;5.28;;;2.92;;
77520;SDS011;66633;47.628;19.158;2023-05-19T13:08:17;6.47;;;2.90;;
77520;SDS011;66633;47.628;19.158;2023-05-19T13:10:44;4.78;;;2.78;;
77520;SDS011;66633;47.628;19.158;2023-05-19T13:13:10;5.10;;;3.30;;
77520;SDS011;66633;47.628;19.158;2023-05-19T13:15:36;6.13;;;3.15;;
77520;SDS011;66633;47.628;19.158;2023-05-19T13:18:03;5.32;;;3.35;;
77520;SDS011;66633;47.628;19.158;2023-05-19T13:20:28;5.30;;;2.75;;
77520;SDS011;66633;47.628;19.158;2023-05-19T13:22:53;5.40;;;3.33;;
77520;SDS011;66633;47.628;19.158;2023-05-19T13:25:19;5.68;;;3.38;;
77520;SDS011;66633;47.628;19.158;2023-05-19T13:27:45;6.10;;;3.10;;
77520;SDS011;66633;47.628;19.158;2023-05-19T13:30:11;6.68;;;3.38;;
77520;SDS011;66633;47.628;19.158;2023-05-19T13:32:36;6.55;;;3.00;;
77520;SDS011;66633;47.628;19.158;2023-05-19T13:35:01;7.33;;;3.60;;
77520;SDS011;66633;47.628;19.158;2023-05-19T13:37:27;7.05;;;3.45;;
77520;SDS011;66633;47.628;19.158;2023-05-19T13:39:52;6.57;;;3.20;;
77520;SDS011;66633;47.628;19.158;2023-05-19T13:42:18;4.82;;;3.00;;
77520;SDS011;66633;47.628;19.158;2023-05-19T13:44:46;7.07;;;3.35;;
77520;SDS011;66633;47.628;19.158;2023-05-19T13:47:11;6.00;;;2.72;;
77520;SDS011;66633;47.628;19.158;2023-05-19T13:49:37;7.00;;;3.50;;
77520;SDS011;66633;47.628;19.158;2023-05-19T13:52:03;6.68;;;3.55;;
77520;SDS011;66633;47.628;19.158;2023-05-19T13:54:28;4.88;;;3.13;;
77520;SDS011;66633;47.628;19.158;2023-05-19T13:56:53;6.10;;;2.83;;
77520;SDS011;66633;47.628;19.158;2023-05-19T13:59:18;5.32;;;2.88;;
77520;SDS011;66633;47.628;19.158;2023-05-19T14:01:47;8.10;;;3.20;;
77520;SDS011;66633;47.628;19.158;2023-05-19T14:04:12;6.87;;;3.10;;
77520;SDS011;66633;47.628;19.158;2023-05-19T14:06:38;6.60;;;3.15;;
77520;SDS011;66633;47.628;19.158;2023-05-19T14:09:03;5.05;;;2.90;;
77520;SDS011;66633;47.628;19.158;2023-05-19T14:33:56;5.20;;;2.75;;
77520;SDS011;66633;47.628;19.158;2023-05-19T14:36:22;5.03;;;2.50;;
77520;SDS011;66633;47.628;19.158;2023-05-19T14:38:47;5.13;;;2.97;;
77520;SDS011;66633;47.628;19.158;2023-05-19T14:41:12;5.27;;;2.30;;
77520;SDS011;66633;47.628;19.158;2023-05-19T14:43:37;5.30;;;3.03;;
77520;SDS011;66633;47.628;19.158;2023-05-19T14:46:05;5.00;;;3.00;;
77520;SDS011;66633;47.628;19.158;2023-05-19T14:48:30;6.57;;;3.43;;
77520;SDS011;66633;47.628;19.158;2023-05-19T14:50:56;5.65;;;2.90;;
77520;SDS011;66633;47.628;19.158;2023-05-19T14:53:21;6.15;;;2.92;;
77520;SDS011;66633;47.628;19.158;2023-05-19T14:55:46;5.38;;;3.50;;
77520;SDS011;66633;47.628;19.158;2023-05-19T14:58:13;5.63;;;3.17;;
77520;SDS011;66633;47.628;19.158;2023-05-19T15:00:40;4.90;;;3.08;;
77520;SDS011;66633;47.628;19.158;2023-05-19T15:03:06;5.17;;;2.80;;
77520;SDS011;66633;47.628;19.158;2023-05-19T15:05:31;5.53;;;3.20;;
77520;SDS011;66633;47.628;19.158;2023-05-19T15:07:56;7.97;;;3.28;;
77520;SDS011;66633;47.628;19.158;2023-05-19T15:10:21;5.70;;;3.00;;
77520;SDS011;66633;47.628;19.158;2023-05-19T15:12:48;5.93;;;3.45;;
77520;SDS011;66633;47.628;19.158;2023-05-19T15:15:13;5.15;;;3.08;;
77520;SDS011;66633;47.628;19.158;2023-05-19T15:17:52;6.05;;;3.35;;
77520;SDS011;66633;47.628;19.158;2023-05-19T15:20:32;6.75;;;3.47;;
77520;SDS011;66633;47.628;19.158;2023-05-19T15:22:57;5.72;;;3.50;;